Time;durP1;ratioP1;P1;durP2;ratioP2;P2;SDS_P1;SDS_P2;PMS_P1;PMS_P2;Temp;Humidity;BMP_temperature;BMP_pressure;BME280_temperature;BME280_humidity;BME280_pressure;Samples;Min_cycle;Max_cycle;Signal;HPM_P1;HPM_P2
2021/06/08 00:00:47;;;;;;;7.47;7.13;;;13.80;99.90;;;;;;5092033;28;20543;-55
2021/06/08 00:03:14;;;;;;;7.60;6.90;;;13.90;99.90;;;;;;5093181;28;20426;-55
2021/06/08 00:05:42;;;;;;;7.32;6.82;;;14.00;99.90;;;;;;5093409;28;20012;-54
2021/06/08 00:08:09;;;;;;;7.30;6.95;;;14.00;99.90;;;;;;5093309;28;20097;-50
2021/06/08 00:10:37;;;;;;;6.93;6.50;;;14.10;99.90;;;;;;5093194;28;20020;-52
2021/06/08 00:13:04;;;;;;;7.57;7.20;;;14.20;99.90;;;;;;5093208;28;20443;-49
2021/06/08 00:15:32;;;;;;;7.40;6.80;;;14.10;99.90;;;;;;5093097;28;20175;-47
2021/06/08 00:17:59;;;;;;;7.03;6.65;;;14.10;99.90;;;;;;5093064;28;20430;-49
2021/06/08 00:20:26;;;;;;;6.82;6.43;;;14.20;99.90;;;;;;5092921;28;20088;-52
2021/06/08 00:22:56;;;;;;;6.53;6.20;;;14.20;99.90;;;;;;5092966;28;20020;-51
2021/06/08 00:25:24;;;;;;;6.80;6.32;;;14.20;99.90;;;;;;5092746;28;20499;-50
2021/06/08 00:27:56;;;;;;;6.70;6.32;;;14.30;99.90;;;;;;5092888;28;20027;-53
2021/06/08 00:30:25;;;;;;;6.88;6.57;;;14.30;99.90;;;;;;5075310;28;20031;-53
2021/06/08 00:32:52;;;;;;;6.18;5.88;;;14.30;99.90;;;;;;5093309;28;20081;-53
2021/06/08 00:35:19;;;;;;;7.53;7.13;;;14.40;99.90;;;;;;5093050;28;20488;-49
2021/06/08 00:37:47;;;;;;;7.00;6.70;;;14.40;99.90;;;;;;5092836;28;20035;-52
2021/06/08 00:40:15;;;;;;;7.30;7.00;;;14.50;99.90;;;;;;5092846;28;20385;-54
2021/06/08 00:42:44;;;;;;;6.80;6.50;;;14.60;99.90;;;;;;5092963;28;20024;-54
2021/06/08 00:45:13;;;;;;;6.63;6.25;;;14.70;99.90;;;;;;5094401;28;20092;-52
2021/06/08 00:47:40;;;;;;;7.20;6.80;;;14.80;99.90;;;;;;5096905;28;20026;-53
2021/06/08 00:50:08;;;;;;;6.95;6.55;;;14.90;99.90;;;;;;5096862;28;20016;-53
2021/06/08 00:52:35;;;;;;;7.28;6.88;;;14.90;99.90;;;;;;5096812;28;20016;-54
2021/06/08 00:55:03;;;;;;;6.05;5.70;;;14.90;99.90;;;;;;5096855;28;20028;-54
2021/06/08 00:57:31;;;;;;;6.90;6.50;;;14.90;99.90;;;;;;5096932;28;20035;-51
2021/06/08 00:59:58;;;;;;;7.00;6.53;;;14.90;99.90;;;;;;5096688;28;20020;-50
2021/06/08 01:02:25;;;;;;;6.78;6.38;;;15.00;99.90;;;;;;5096580;28;20125;-54
2021/06/08 01:04:52;;;;;;;7.00;6.60;;;14.90;99.90;;;;;;5096461;28;20480;-54
2021/06/08 01:07:20;;;;;;;6.80;6.50;;;15.00;99.90;;;;;;5096469;28;20023;-55
2021/06/08 01:09:47;;;;;;;6.22;5.95;;;15.10;99.90;;;;;;5096531;28;20031;-53
2021/06/08 01:12:15;;;;;;;7.45;6.85;;;15.00;99.90;;;;;;5096327;28;20549;-53
2021/06/08 01:14:42;;;;;;;6.90;6.60;;;15.00;99.90;;;;;;5095073;28;20028;-53
2021/06/08 01:17:09;;;;;;;7.10;6.80;;;15.00;99.90;;;;;;5096417;28;20062;-51
2021/06/08 01:19:37;;;;;;;6.03;5.72;;;15.10;99.90;;;;;;5096182;28;20048;-49
2021/06/08 01:22:05;;;;;;;5.88;5.68;;;15.20;99.90;;;;;;5096189;28;20491;-53
2021/06/08 01:24:32;;;;;;;6.38;6.10;;;15.20;99.90;;;;;;5096156;28;20028;-50
2021/06/08 01:26:59;;;;;;;6.82;6.43;;;15.30;99.90;;;;;;5096151;28;20052;-52
2021/06/08 01:29:29;;;;;;;6.50;6.10;;;15.30;99.90;;;;;;5096154;28;20016;-53
2021/06/08 01:31:58;;;;;;;6.80;6.50;;;15.30;99.90;;;;;;5096059;28;20169;-54
2021/06/08 01:34:26;;;;;;;6.35;5.95;;;15.40;99.90;;;;;;5095992;28;20085;-55
2021/06/08 01:36:54;;;;;;;6.20;5.90;;;15.40;99.90;;;;;;5096012;28;20020;-54
2021/06/08 01:39:22;;;;;;;6.63;6.22;;;15.50;99.90;;;;;;5095936;28;20150;-53
2021/06/08 01:41:50;;;;;;;5.72;5.43;;;15.50;99.90;;;;;;5095791;28;20027;-50
2021/06/08 01:44:18;;;;;;;6.85;6.45;;;15.60;99.90;;;;;;5095595;28;20446;-49
2021/06/08 01:46:45;;;;;;;6.80;6.40;;;15.50;99.90;;;;;;5095881;28;20013;-51
2021/06/08 01:49:13;;;;;;;6.65;6.20;;;15.50;99.90;;;;;;5095623;28;20101;-53
2021/06/08 01:52:01;;;;;;;6.65;6.05;;;15.50;99.90;;;;;;5094353;28;20074;-53
2021/06/08 01:54:36;;;;;;;7.10;6.60;;;15.50;99.90;;;;;;5095767;28;20035;-51
2021/06/08 01:57:26;;;;;;;5.72;5.53;;;15.60;99.90;;;;;;5094284;28;20107;-52
2021/06/08 02:00:14;;;;;;;6.63;6.18;;;15.60;99.90;;;;;;5084863;28;20036;-52
2021/06/08 02:03:02;;;;;;;5.72;5.32;;;15.60;99.90;;;;;;5095406;28;20089;-51
2021/06/08 02:05:41;;;;;;;6.53;6.13;;;15.80;99.90;;;;;;5095435;28;20423;-53
2021/06/08 02:08:40;;;;;;;6.93;6.53;;;15.90;99.90;;;;;;5095353;28;20077;-53
2021/06/08 02:11:10;;;;;;;5.38;5.18;;;16.10;99.90;;;;;;5051238;28;20028;-51
2021/06/08 02:13:56;;;;;;;4.85;4.60;;;16.10;99.90;;;;;;5095538;28;20477;-51
2021/06/08 02:16:31;;;;;;;5.03;4.82;;;16.30;99.90;;;;;;5095302;28;20028;-48
2021/06/08 02:18:59;;;;;;;6.00;5.60;;;16.30;99.90;;;;;;5095288;28;20024;-51
2021/06/08 02:21:35;;;;;;;6.22;4.70;;;16.40;99.90;;;;;;5095149;28;20105;-52
2021/06/08 02:24:04;;;;;;;5.45;5.13;;;16.40;99.90;;;;;;5095060;28;20040;-54
2021/06/08 02:26:34;;;;;;;5.50;5.30;;;16.50;99.90;;;;;;5095112;28;20428;-54
2021/06/08 02:29:03;;;;;;;5.55;5.15;;;16.60;99.90;;;;;;5094976;28;20043;-54
2021/06/08 02:31:32;;;;;;;5.30;4.97;;;16.60;99.90;;;;;;5094839;28;20028;-51
2021/06/08 02:34:01;;;;;;;5.25;4.95;;;16.70;99.90;;;;;;5094851;28;20085;-51
2021/06/08 02:36:29;;;;;;;5.00;4.70;;;16.70;99.90;;;;;;5094893;28;20480;-51
2021/06/08 02:38:58;;;;;;;5.47;5.10;;;16.70;99.90;;;;;;5094890;28;20016;-51
2021/06/08 02:41:27;;;;;;;5.65;5.38;;;16.60;99.90;;;;;;5094582;28;20039;-51
2021/06/08 02:43:56;;;;;;;5.30;5.00;;;16.50;99.90;;;;;;5094276;28;20447;-50
2021/06/08 02:46:25;;;;;;;4.68;4.38;;;16.50;99.90;;;;;;5094549;28;20020;-50
2021/06/08 02:48:54;;;;;;;4.00;3.70;;;16.40;99.90;;;;;;5093361;28;20111;-52
2021/06/08 02:51:25;;;;;;;5.63;4.32;;;16.40;99.90;;;;;;5094520;28;20032;-50
2021/06/08 02:53:53;;;;;;;;;;;16.40;99.90;;;;;;5095064;28;20032;-52
2021/06/08 02:56:21;;;;;;;5.38;4.95;;;16.30;99.90;;;;;;5094582;28;19904;-55
2021/06/08 02:58:49;;;;;;;4.95;4.70;;;16.30;99.90;;;;;;5094429;28;20024;-54
2021/06/08 03:01:19;;;;;;;4.63;4.32;;;16.40;99.90;;;;;;5094420;28;20043;-55
2021/06/08 03:03:51;;;;;;;5.50;5.00;;;16.50;99.90;;;;;;5094233;28;20016;-54
2021/06/08 03:06:28;;;;;;;5.32;4.93;;;16.50;99.90;;;;;;5094216;28;20095;-54
2021/06/08 03:09:15;;;;;;;4.85;4.65;;;16.60;99.90;;;;;;5094311;28;20027;-53
2021/06/08 03:11:51;;;;;;;5.22;4.93;;;16.60;99.90;;;;;;5092731;28;20039;-54
2021/06/08 03:14:21;;;;;;;5.30;5.00;;;16.70;99.90;;;;;;5094345;28;20534;-51
2021/06/08 03:16:57;;;;;;;5.13;4.73;;;16.70;99.90;;;;;;5094146;28;20051;-54
2021/06/08 03:19:28;;;;;;;4.65;4.43;;;16.80;99.90;;;;;;5093973;28;20020;-52
2021/06/08 03:21:59;;;;;;;5.28;4.97;;;16.80;99.90;;;;;;5094059;28;20055;-53
2021/06/08 03:24:31;;;;;;;4.72;4.53;;;16.90;99.90;;;;;;5093883;28;20039;-54
2021/06/08 03:27:00;;;;;;;4.75;4.55;;;16.90;99.90;;;;;;5093888;28;20113;-52
2021/06/08 03:29:31;;;;;;;5.00;4.70;;;17.00;99.90;;;;;;5093825;28;20031;-53
2021/06/08 03:32:00;;;;;;;4.40;4.20;;;17.00;99.90;;;;;;5093865;28;20048;-58
2021/06/08 03:34:27;;;;;;;5.28;4.88;;;17.00;99.90;;;;;;5093916;28;20027;-57
2021/06/08 03:36:56;;;;;;;4.85;4.65;;;16.90;99.90;;;;;;5093694;28;20039;-59
2021/06/08 03:39:27;;;;;;;5.60;5.10;;;16.80;99.90;;;;;;5093501;28;20020;-56
2021/06/08 03:41:54;;;;;;;5.38;5.07;;;16.80;99.90;;;;;;5093643;28;20545;-59
2021/06/08 03:44:38;;;;;;;5.10;4.88;;;16.70;99.90;;;;;;5059867;28;20173;-58
2021/06/08 03:47:06;;;;;;;5.45;5.15;;;16.80;99.90;;;;;;5093782;28;20035;-55
2021/06/08 03:49:34;;;;;;;5.93;5.53;;;16.80;99.90;;;;;;5093597;28;20028;-55
2021/06/08 03:52:01;;;;;;;5.03;4.80;;;16.90;99.90;;;;;;5092369;28;20028;-58
2021/06/08 03:54:29;;;;;;;5.47;5.07;;;17.00;99.90;;;;;;5093341;28;20104;-55
2021/06/08 03:56:59;;;;;;;5.15;4.85;;;17.30;99.90;;;;;;5093290;28;20026;-54
2021/06/08 03:59:29;;;;;;;5.60;5.20;;;17.60;99.90;;;;;;5093239;28;20058;-54
2021/06/08 04:01:57;;;;;;;5.22;4.70;;;17.80;99.90;;;;;;5093155;28;20480;-49
2021/06/08 04:04:30;;;;;;;5.60;5.20;;;17.90;99.90;;;;;;5093178;28;20372;-54
2021/06/08 04:06:57;;;;;;;5.10;4.78;;;17.80;99.90;;;;;;5093295;28;20047;-51
2021/06/08 04:09:25;;;;;;;6.22;5.75;;;17.70;99.90;;;;;;5093268;28;20404;-55
2021/06/08 04:11:53;;;;;;;5.15;4.93;;;17.60;99.90;;;;;;5093030;28;20438;-52
2021/06/08 04:14:21;;;;;;;6.15;5.57;;;17.60;99.90;;;;;;5093075;28;20395;-54
2021/06/08 04:16:49;;;;;;;5.28;5.00;;;17.60;99.90;;;;;;5093153;28;20032;-51
2021/06/08 04:19:16;;;;;;;5.85;5.45;;;17.60;99.90;;;;;;5092056;28;20401;-52
2021/06/08 04:21:48;;;;;;;5.40;5.00;;;17.50;99.90;;;;;;5092978;28;20472;-52
2021/06/08 04:24:15;;;;;;;5.30;5.00;;;17.50;99.90;;;;;;5092973;28;20021;-53
2021/06/08 04:26:43;;;;;;;6.32;5.82;;;17.50;99.90;;;;;;5093029;28;20024;-52
2021/06/08 04:29:10;;;;;;;5.10;4.90;;;17.60;99.90;;;;;;5093038;28;20106;-53
2021/06/08 04:31:38;;;;;;;5.03;4.72;;;17.60;99.90;;;;;;5093275;28;20023;-55
2021/06/08 04:34:05;;;;;;;5.20;5.00;;;17.50;99.90;;;;;;5092887;28;20020;-52
2021/06/08 04:36:33;;;;;;;6.70;5.20;;;17.50;99.90;;;;;;5091789;28;20377;-53
2021/06/08 04:39:00;;;;;;;8.13;5.78;;;17.50;99.90;;;;;;5091620;28;20032;-53
2021/06/08 04:41:28;;;;;;;5.60;5.20;;;17.50;99.90;;;;;;5092816;28;20503;-51
2021/06/08 04:43:55;;;;;;;5.95;5.65;;;17.50;99.90;;;;;;5092456;28;20043;-54
2021/06/08 04:46:22;;;;;;;6.63;6.10;;;17.50;99.90;;;;;;5092634;28;20034;-54
2021/06/08 04:48:50;;;;;;;6.53;6.03;;;17.50;99.90;;;;;;5092634;28;20091;-54
2021/06/08 04:51:18;;;;;;;5.75;5.30;;;17.50;99.90;;;;;;5092812;28;20408;-49
2021/06/08 04:53:45;;;;;;;5.60;5.18;;;17.70;99.90;;;;;;5092818;28;20477;-52
2021/06/08 04:56:12;;;;;;;6.43;5.82;;;17.60;99.90;;;;;;5092797;28;20023;-53
2021/06/08 04:58:42;;;;;;;5.28;4.97;;;17.70;99.90;;;;;;5092649;28;20051;-55
2021/06/08 05:01:22;;;;;;;6.07;5.80;;;17.70;99.90;;;;;;5092689;28;20392;-55
2021/06/08 05:03:57;;;;;;;5.40;5.10;;;17.50;99.90;;;;;;5091231;28;20047;-51
2021/06/08 05:06:31;;;;;;;6.18;5.75;;;17.40;99.90;;;;;;5091412;28;20069;-53
2021/06/08 05:09:03;;;;;;;6.22;5.93;;;17.30;99.90;;;;;;5091465;28;20016;-52
2021/06/08 05:11:53;;;;;;;6.32;5.88;;;17.20;99.90;;;;;;5091401;28;20388;-51
2021/06/08 05:14:22;;;;;;;6.30;5.80;;;17.10;99.90;;;;;;5092650;28;20046;-53
2021/06/08 05:16:51;;;;;;;6.35;5.95;;;17.00;99.90;;;;;;5092634;28;20476;-51
2021/06/08 05:19:20;;;;;;;6.10;5.80;;;17.00;99.90;;;;;;5091200;28;20059;-51
2021/06/08 05:21:48;;;;;;;6.40;6.00;;;16.90;99.90;;;;;;5092526;28;20039;-54
2021/06/08 05:24:18;;;;;;;6.40;6.10;;;16.80;99.90;;;;;;5091128;28;20365;-54
2021/06/08 05:26:48;;;;;;;6.63;6.18;;;16.70;99.90;;;;;;5091100;28;20026;-53
2021/06/08 05:29:23;;;;;;;5.57;5.28;;;16.60;99.90;;;;;;5092759;28;20027;-50
2021/06/08 05:31:55;;;;;;;6.38;6.07;;;16.60;99.90;;;;;;5096035;28;20028;-54
2021/06/08 05:34:23;;;;;;;6.68;6.30;;;16.60;99.90;;;;;;5096289;28;20063;-50
2021/06/08 05:36:51;;;;;;;6.30;5.93;;;16.50;99.90;;;;;;5096118;28;20016;-50
2021/06/08 05:39:18;;;;;;;6.45;5.95;;;16.40;99.90;;;;;;5096055;28;20098;-52
2021/06/08 05:41:46;;;;;;;6.57;6.07;;;16.40;99.90;;;;;;5095870;28;20024;-53
2021/06/08 05:44:14;;;;;;;5.90;5.60;;;16.30;99.90;;;;;;5095618;28;20055;-50
2021/06/08 05:46:42;;;;;;;5.88;5.38;;;16.30;99.90;;;;;;5095802;28;20431;-53
2021/06/08 05:49:10;;;;;;;5.93;5.53;;;16.30;99.90;;;;;;5094463;28;20020;-53
2021/06/08 05:51:39;;;;;;;5.97;5.65;;;16.20;99.90;;;;;;5095635;28;20107;-50
2021/06/08 05:54:10;;;;;;;5.97;5.57;;;16.20;99.90;;;;;;5095575;28;20016;-54
2021/06/08 05:56:39;;;;;;;5.65;5.30;;;16.10;99.90;;;;;;5095548;28;20020;-53
2021/06/08 05:59:07;;;;;;;6.38;6.07;;;16.10;99.90;;;;;;5095501;28;20032;-52
2021/06/08 06:01:36;;;;;;;6.90;6.40;;;16.00;99.90;;;;;;5095501;28;20020;-55
2021/06/08 06:04:04;;;;;;;6.40;6.00;;;16.00;99.90;;;;;;5095518;28;20034;-47
2021/06/08 06:06:31;;;;;;;6.45;6.00;;;16.00;99.90;;;;;;5095371;28;20035;-52
2021/06/08 06:08:59;;;;;;;6.93;6.53;;;16.00;99.90;;;;;;5095364;28;20035;-53
2021/06/08 06:11:28;;;;;;;7.60;6.90;;;16.00;99.90;;;;;;5095293;28;20465;-53
2021/06/08 06:14:02;;;;;;;7.28;6.80;;;16.00;99.90;;;;;;5094094;28;20024;-54
2021/06/08 06:16:33;;;;;;;7.80;7.10;;;15.90;99.90;;;;;;5095560;28;20031;-52
2021/06/08 06:19:03;;;;;;;7.03;6.60;;;16.00;99.90;;;;;;5095207;28;20119;-52
2021/06/08 06:21:31;;;;;;;6.50;6.10;;;16.00;99.90;;;;;;5095160;28;20028;-52
2021/06/08 06:24:00;;;;;;;6.68;6.32;;;16.00;99.90;;;;;;5094977;28;20024;-53
2021/06/08 06:26:28;;;;;;;7.10;6.40;;;16.00;99.90;;;;;;5094984;28;20017;-53
2021/06/08 06:28:56;;;;;;;6.82;6.43;;;15.90;99.90;;;;;;5093620;28;20039;-53
2021/06/08 06:31:27;;;;;;;6.70;6.40;;;15.90;99.90;;;;;;5094831;28;20022;-50
2021/06/08 06:33:58;;;;;;;6.20;5.80;;;15.80;99.90;;;;;;5095050;28;20028;-50
2021/06/08 06:36:31;;;;;;;6.38;5.97;;;15.80;99.90;;;;;;5094849;28;20442;-52
2021/06/08 06:39:09;;;;;;;6.93;6.25;;;15.80;99.90;;;;;;5094860;28;20497;-49
2021/06/08 06:41:43;;;;;;;5.97;5.68;;;15.80;99.90;;;;;;5093955;28;20035;-52
2021/06/08 06:44:12;;;;;;;6.45;6.05;;;15.70;99.90;;;;;;5094325;28;20385;-51
2021/06/08 06:46:40;;;;;;;7.20;6.75;;;15.60;99.90;;;;;;5094639;28;20016;-53
2021/06/08 06:49:08;;;;;;;7.35;6.85;;;15.60;99.90;;;;;;5094418;28;20082;-53
2021/06/08 06:51:37;;;;;;;6.97;6.47;;;15.60;99.90;;;;;;5094257;28;20020;-50
2021/06/08 06:54:05;;;;;;;6.43;6.03;;;15.60;99.90;;;;;;5094454;28;20381;-53
2021/06/08 06:56:32;;;;;;;6.57;6.28;;;15.60;99.90;;;;;;5094166;28;20125;-55
2021/06/08 06:59:00;;;;;;;7.75;7.20;;;15.50;99.90;;;;;;5094219;28;20468;-52
2021/06/08 07:01:28;;;;;;;8.10;7.60;;;15.50;99.90;;;;;;5094185;28;20048;-53
2021/06/08 07:03:58;;;;;;;7.13;6.72;;;15.50;99.90;;;;;;5094148;28;20393;-53
2021/06/08 07:06:27;;;;;;;7.45;7.15;;;15.50;99.90;;;;;;5092918;28;20162;-52
2021/06/08 07:08:57;;;;;;;7.82;7.40;;;15.50;99.90;;;;;;5093978;28;20031;-51
2021/06/08 07:11:25;;;;;;;7.72;7.13;;;15.40;99.90;;;;;;5094272;28;20027;-52
2021/06/08 07:13:54;;;;;;;7.90;7.40;;;15.40;99.90;;;;;;5094079;28;20064;-53
2021/06/08 07:16:25;;;;;;;7.50;7.00;;;15.30;99.90;;;;;;5093917;28;20024;-54
2021/06/08 07:18:53;;;;;;;8.25;7.65;;;15.30;99.90;;;;;;5093844;28;20075;-56
2021/06/08 07:21:24;;;;;;;9.05;8.52;;;15.20;99.90;;;;;;5093903;28;20111;-55
2021/06/08 07:23:54;;;;;;;8.55;7.90;;;15.20;99.90;;;;;;5093830;28;20039;-53
2021/06/08 07:26:22;;;;;;;8.10;7.60;;;15.20;99.90;;;;;;5094161;28;20107;-52
2021/06/08 07:28:50;;;;;;;8.68;8.07;;;15.20;99.90;;;;;;5093638;28;20020;-53
2021/06/08 07:31:49;;;;;;;8.48;7.97;;;15.20;99.90;;;;;;5093696;28;20039;-53
2021/06/08 07:34:34;;;;;;;7.85;7.35;;;15.20;99.90;;;;;;5093837;28;20024;-53
2021/06/08 07:37:02;;;;;;;7.75;7.22;;;15.20;99.90;;;;;;5093599;28;20024;-53
2021/06/08 07:39:45;;;;;;;8.40;7.68;;;15.10;99.90;;;;;;5093519;28;20487;-53
2021/06/08 07:42:39;;;;;;;8.75;8.20;;;15.10;99.90;;;;;;5093541;28;20027;-52
2021/06/08 07:45:11;;;;;;;9.00;8.50;;;15.00;99.90;;;;;;5093280;28;20048;-53
2021/06/08 07:47:41;;;;;;;10.52;9.90;;;15.00;99.90;;;;;;5093443;28;20108;-53
2021/06/08 07:50:10;;;;;;;10.57;9.93;;;14.90;99.90;;;;;;5093498;28;20028;-51
2021/06/08 07:52:38;;;;;;;11.48;10.80;;;14.80;99.90;;;;;;5093384;28;20020;-53
2021/06/08 07:55:10;;;;;;;12.98;12.18;;;14.80;99.90;;;;;;5093406;28;20480;-53
2021/06/08 07:57:37;;;;;;;12.90;12.15;;;14.80;99.90;;;;;;5093471;28;20020;-53
2021/06/08 08:00:09;;;;;;;13.27;12.48;;;14.70;99.90;;;;;;5093138;28;20020;-50
2021/06/08 08:02:36;;;;;;;14.40;13.50;;;14.60;99.90;;;;;;5091933;28;20028;-54
2021/06/08 08:05:09;;;;;;;14.48;13.57;;;14.60;99.90;;;;;;5093318;28;20132;-51
2021/06/08 08:07:38;;;;;;;14.52;13.55;;;14.50;99.90;;;;;;5093370;28;20020;-51
2021/06/08 08:10:06;;;;;;;15.32;14.50;;;14.50;99.90;;;;;;5093318;28;20081;-52
2021/06/08 08:12:39;;;;;;;16.85;15.82;;;14.50;99.90;;;;;;5093199;28;20026;-54
2021/06/08 08:15:08;;;;;;;19.05;17.63;;;14.40;99.90;;;;;;5093177;28;20031;-49
2021/06/08 08:17:37;;;;;;;18.10;17.20;;;14.40;99.90;;;;;;5093218;28;20028;-51
2021/06/08 08:20:09;;;;;;;18.17;17.27;;;14.40;99.90;;;;;;5092842;28;20016;-54
2021/06/08 08:22:37;;;;;;;19.80;18.60;;;14.50;99.90;;;;;;5093237;28;20485;-50
2021/06/08 08:25:06;;;;;;;19.80;18.70;;;14.50;99.90;;;;;;5093042;28;20023;-52
2021/06/08 08:27:34;;;;;;;22.55;21.33;;;14.50;99.90;;;;;;5093107;28;20027;-51
2021/06/08 08:30:01;;;;;;;23.98;22.40;;;14.50;99.90;;;;;;5093066;28;20146;-50
2021/06/08 08:32:29;;;;;;;24.60;23.08;;;14.50;99.90;;;;;;5092992;28;20020;-52
2021/06/08 08:34:57;;;;;;;26.65;24.98;;;14.50;99.90;;;;;;5092974;28;20395;-51
2021/06/08 08:37:24;;;;;;;27.30;25.63;;;14.40;99.90;;;;;;5092954;28;20028;-52
2021/06/08 08:39:51;;;;;;;28.85;27.20;;;14.40;99.90;;;;;;5093060;28;20030;-48
2021/06/08 08:42:22;;;;;;;31.08;29.02;;;14.40;99.90;;;;;;5092900;28;20017;-50
2021/06/08 08:44:50;;;;;;;33.25;31.05;;;14.30;99.90;;;;;;5092766;28;20044;-50
2021/06/08 08:47:17;;;;;;;34.83;32.60;;;14.20;99.90;;;;;;5092837;28;20488;-51
2021/06/08 08:49:44;;;;;;;36.45;34.05;;;14.20;99.90;;;;;;5092563;28;20031;-52
2021/06/08 08:52:14;;;;;;;38.25;35.90;;;14.10;99.90;;;;;;5093003;28;20090;-53
2021/06/08 08:54:45;;;;;;;38.50;35.72;;;14.10;99.90;;;;;;5092952;28;20020;-48
2021/06/08 08:57:13;;;;;;;40.53;37.88;;;14.10;99.90;;;;;;5092692;28;20104;-52
2021/06/08 08:59:41;;;;;;;39.20;36.60;;;14.00;99.90;;;;;;5091394;28;20032;-52
2021/06/08 09:02:11;;;;;;;39.05;36.33;;;14.00;99.90;;;;;;5092702;28;20024;-49
2021/06/08 09:04:38;;;;;;;43.72;40.58;;;13.90;99.90;;;;;;5092844;28;20028;-54
2021/06/08 09:07:06;;;;;;;43.45;40.33;;;13.90;99.90;;;;;;5096732;28;20430;-52
2021/06/08 09:09:33;;;;;;;44.53;41.17;;;13.80;99.90;;;;;;5096588;28;20496;-51
2021/06/08 09:12:04;;;;;;;41.95;38.85;;;13.80;99.90;;;;;;5096413;28;20016;-52
2021/06/08 09:14:31;;;;;;;36.95;34.40;;;13.80;99.90;;;;;;5096586;28;20039;-49
2021/06/08 09:16:59;;;;;;;42.17;39.28;;;13.80;99.90;;;;;;5096551;28;20028;-53
2021/06/08 09:19:29;;;;;;;42.17;39.05;;;13.80;99.90;;;;;;5096360;28;20151;-49
2021/06/08 09:21:57;;;;;;;41.27;38.27;;;13.80;99.90;;;;;;5095045;28;20028;-53
2021/06/08 09:24:27;;;;;;;39.85;37.05;;;13.70;99.90;;;;;;5096151;28;20359;-53
2021/06/08 09:26:56;;;;;;;39.67;36.92;;;13.70;99.90;;;;;;5096258;28;20028;-51
2021/06/08 09:29:38;;;;;;;39.13;36.28;;;13.60;99.90;;;;;;5096091;28;20389;-53
2021/06/08 09:32:28;;;;;;;38.90;36.17;;;13.70;99.90;;;;;;5096304;28;20020;-53
2021/06/08 09:35:03;;;;;;;42.90;39.80;;;13.70;99.90;;;;;;5096026;28;20055;-51
2021/06/08 09:37:45;;;;;;;46.25;42.97;;;13.70;99.90;;;;;;5094939;28;20055;-49
2021/06/08 09:40:27;;;;;;;40.90;37.92;;;13.70;99.90;;;;;;5095860;28;20032;-51
2021/06/08 09:43:12;;;;;;;42.35;39.15;;;13.60;99.90;;;;;;5094343;28;20511;-51
2021/06/08 09:45:43;;;;;;;40.47;37.28;;;13.60;99.90;;;;;;5095871;28;20056;-52
2021/06/08 09:48:11;;;;;;;45.53;41.95;;;13.40;99.90;;;;;;5095785;28;20023;-49
2021/06/08 09:50:47;;;;;;;44.05;40.65;;;13.30;99.90;;;;;;5095723;28;20031;-51
2021/06/08 09:53:23;;;;;;;45.70;41.92;;;13.20;99.90;;;;;;5095680;28;20097;-49
2021/06/08 09:56:00;;;;;;;41.20;37.75;;;13.10;99.90;;;;;;5095572;28;20047;-50
2021/06/08 09:58:28;;;;;;;44.63;41.17;;;13.00;99.90;;;;;;5095685;28;20060;-50
2021/06/08 10:01:18;;;;;;;55.58;51.40;;;12.90;99.90;;;;;;5095521;28;20020;-49
2021/06/08 10:03:48;;;;;;;41.65;38.10;;;12.80;99.90;;;;;;5094007;28;20111;-50
2021/06/08 10:06:19;;;;;;;41.22;37.53;;;12.80;99.90;;;;;;5095409;28;20022;-51
2021/06/08 10:09:02;;;;;;;50.70;46.80;;;12.70;99.90;;;;;;5095362;28;20068;-48
2021/06/08 10:11:32;;;;;;;50.47;46.38;;;12.60;99.90;;;;;;5095324;28;20431;-53
2021/06/08 10:14:17;;;;;;;44.47;40.67;;;12.60;99.90;;;;;;5095234;28;20062;-53
2021/06/08 10:16:46;;;;;;;54.95;50.95;;;12.60;99.90;;;;;;5094034;28;20031;-50
2021/06/08 10:19:25;;;;;;;47.03;43.22;;;12.50;99.90;;;;;;5094906;28;20090;-51
2021/06/08 10:21:53;;;;;;;54.88;50.88;;;12.50;99.90;;;;;;5095009;28;20028;-52
2021/06/08 10:24:27;;;;;;;49.00;45.10;;;12.30;99.90;;;;;;5094762;28;20027;-52
2021/06/08 10:26:57;;;;;;;46.65;42.75;;;12.40;99.90;;;;;;5094896;28;20488;-48
2021/06/08 10:29:26;;;;;;;47.83;44.08;;;12.40;99.90;;;;;;5094667;28;20050;-51
2021/06/08 10:31:57;;;;;;;49.92;45.92;;;12.50;99.90;;;;;;5094813;28;20131;-54
2021/06/08 10:34:27;;;;;;;50.55;46.65;;;12.60;99.90;;;;;;5093563;28;20028;-53
2021/06/08 10:36:56;;;;;;;49.33;45.53;;;12.50;99.90;;;;;;5094665;28;20059;-54
2021/06/08 10:39:25;;;;;;;54.20;50.20;;;12.50;99.90;;;;;;5094661;28;20564;-48
2021/06/08 10:41:55;;;;;;;53.08;49.08;;;12.50;99.90;;;;;;5094671;28;20493;-48
2021/06/08 10:44:28;;;;;;;46.53;42.67;;;12.50;99.90;;;;;;5094555;28;20404;-51
2021/06/08 10:47:03;;;;;;;54.25;50.17;;;12.50;99.90;;;;;;5094742;28;20299;-52
2021/06/08 10:49:39;;;;;;;48.25;44.55;;;12.40;99.90;;;;;;5094718;28;20020;-50
2021/06/08 10:52:11;;;;;;;57.97;53.88;;;12.40;99.90;;;;;;5094569;28;20024;-51
2021/06/08 10:54:47;;;;;;;50.55;46.65;;;12.40;99.90;;;;;;5094465;28;20028;-49
2021/06/08 10:57:16;;;;;;;51.45;47.60;;;12.30;99.90;;;;;;5094455;28;20385;-48
2021/06/08 10:59:45;;;;;;;54.50;50.42;;;12.20;99.90;;;;;;5094228;28;20392;-54
2021/06/08 11:02:34;;;;;;;55.55;51.55;;;12.10;99.90;;;;;;5094191;28;20054;-53
2021/06/08 11:05:01;;;;;;;54.90;50.70;;;12.10;99.90;;;;;;5093794;28;20043;-50
2021/06/08 11:07:44;;;;;;;54.88;50.83;;;12.20;99.90;;;;;;5094165;28;20024;-51
2021/06/08 11:10:29;;;;;;;53.35;49.55;;;12.20;99.90;;;;;;5094116;28;20020;-52
2021/06/08 11:13:09;;;;;;;54.15;50.35;;;12.10;99.90;;;;;;5094046;28;20026;-50
2021/06/08 11:15:39;;;;;;;55.10;50.90;;;12.10;99.90;;;;;;5093968;28;20031;-49
2021/06/08 11:18:35;;;;;;;50.67;46.80;;;12.10;99.90;;;;;;5093809;28;20027;-53
2021/06/08 11:21:05;;;;;;;50.85;47.17;;;12.10;99.90;;;;;;5089208;28;20036;-53
2021/06/08 11:23:34;;;;;;;58.30;54.30;;;12.10;99.90;;;;;;5094197;28;20024;-49
2021/06/08 11:26:03;;;;;;;55.85;51.90;;;12.10;99.90;;;;;;5093844;28;20059;-58
2021/06/08 11:28:42;;;;;;;55.25;50.95;;;12.10;99.90;;;;;;5093631;28;20031;-53
2021/06/08 11:31:10;;;;;;;51.80;47.70;;;12.10;99.90;;;;;;5093672;28;20027;-50
2021/06/08 11:33:41;;;;;;;54.45;50.33;;;12.10;99.90;;;;;;5093903;28;20136;-48
2021/06/08 11:36:17;;;;;;;;;;;12.10;99.90;;;;;;5094146;28;20023;-49
2021/06/08 11:38:45;;;;;;;55.67;51.78;;;12.10;99.90;;;;;;5093735;28;19983;-51
2021/06/08 11:41:13;;;;;;;57.45;53.35;;;12.10;99.90;;;;;;5093478;28;20048;-52
2021/06/08 11:43:56;;;;;;;52.03;48.17;;;12.10;99.90;;;;;;5093583;28;20040;-53
2021/06/08 11:46:44;;;;;;;52.92;49.22;;;12.10;99.90;;;;;;5092243;28;20031;-54
2021/06/08 11:49:15;;;;;;;51.95;48.28;;;12.10;99.90;;;;;;5093316;28;20467;-54
2021/06/08 11:51:50;;;;;;;51.15;47.35;;;12.10;99.90;;;;;;5093506;28;20024;-51
2021/06/08 11:54:42;;;;;;;51.25;47.40;;;12.20;99.90;;;;;;5093554;28;20081;-52
2021/06/08 11:57:14;;;;;;;52.65;48.85;;;12.20;99.90;;;;;;5088417;28;20035;-54
2021/06/08 11:59:45;;;;;;;52.75;48.95;;;12.10;99.90;;;;;;5093300;28;20381;-52
2021/06/08 12:02:30;;;;;;;50.88;47.08;;;12.10;99.90;;;;;;5093388;28;20047;-51
2021/06/08 12:05:23;;;;;;;54.85;50.97;;;12.20;99.90;;;;;;5091840;28;20063;-52
2021/06/08 12:08:03;;;;;;;63.50;59.42;;;12.10;99.90;;;;;;5093099;28;20385;-50
2021/06/08 12:10:40;;;;;;;53.60;49.80;;;12.10;99.90;;;;;;5093456;28;20051;-54
2021/06/08 12:13:08;;;;;;;52.38;48.63;;;12.10;99.90;;;;;;5093142;28;20020;-55
2021/06/08 12:15:51;;;;;;;49.20;45.60;;;12.10;99.90;;;;;;5093252;28;20077;-53
2021/06/08 12:18:28;;;;;;;52.13;48.35;;;12.10;99.90;;;;;;5093314;28;20027;-54
2021/06/08 12:20:55;;;;;;;54.25;50.45;;;12.10;99.90;;;;;;5093041;28;20112;-53
2021/06/08 12:23:31;;;;;;;52.65;48.65;;;12.10;99.90;;;;;;5093355;28;20023;-52
2021/06/08 12:26:16;;;;;;;51.78;47.88;;;12.10;99.90;;;;;;5093005;28;20388;-53
2021/06/08 12:29:03;;;;;;;50.50;46.67;;;12.10;99.90;;;;;;5093118;28;20020;-48
2021/06/08 12:31:31;;;;;;;52.38;48.47;;;12.10;99.90;;;;;;5092844;28;20504;-51
2021/06/08 12:34:00;;;;;;;51.72;47.85;;;12.00;99.90;;;;;;5093280;28;20021;-54
2021/06/08 12:36:27;;;;;;;50.17;46.58;;;11.90;99.90;;;;;;5092926;28;20024;-51
2021/06/08 12:38:58;;;;;;;50.42;46.63;;;12.00;99.90;;;;;;5091739;28;20480;-53
2021/06/08 12:41:26;;;;;;;49.80;46.13;;;12.10;99.90;;;;;;5095963;28;20111;-54
2021/06/08 12:43:58;;;;;;;51.40;47.50;;;12.10;99.90;;;;;;5096750;28;20056;-54
2021/06/08 12:46:26;;;;;;;50.88;46.88;;;12.10;99.90;;;;;;5096936;28;20106;-50
2021/06/08 12:49:12;;;;;;;50.50;46.80;;;12.10;99.90;;;;;;5096892;28;20028;-54
2021/06/08 12:51:41;;;;;;;46.38;42.67;;;12.10;99.90;;;;;;5096924;28;20472;-53
2021/06/08 12:54:26;;;;;;;47.67;43.97;;;12.00;99.90;;;;;;5096879;28;20515;-50
2021/06/08 12:56:53;;;;;;;50.30;46.45;;;12.00;99.90;;;;;;5097090;28;20020;-49
2021/06/08 12:59:40;;;;;;;50.42;46.72;;;12.20;99.90;;;;;;5096853;28;20028;-51
2021/06/08 13:02:10;;;;;;;50.10;46.30;;;12.00;99.90;;;;;;5096747;28;20106;-53